Time;durP1;ratioP1;P1;durP2;ratioP2;P2;SDS_P1;SDS_P2;PMS_P1;PMS_P2;Temp;Humidity;BMP_temperature;BMP_pressure;BME280_temperature;BME280_humidity;BME280_pressure;Samples;Min_cycle;Max_cycle;Signal;HPM_P1;HPM_P2
2022/04/20 00:00:05;;;;;;;62.30;33.88;;;;;;;3.34;71.10;100288.25;5053438;28;20020;-75
2022/04/20 00:02:31;;;;;;;58.05;32.25;;;;;;;3.31;71.17;100285.47;5035363;28;20123;-74
2022/04/20 00:04:57;;;;;;;61.63;32.55;;;;;;;3.29;70.99;100293.59;5052469;28;20108;-75
2022/04/20 00:07:24;;;;;;;55.85;32.47;;;;;;;3.27;70.93;100287.56;5052148;28;20116;-75
2022/04/20 00:09:51;;;;;;;59.00;32.83;;;;;;;3.27;70.95;100287.56;5051889;28;20036;-75
2022/04/20 00:12:16;;;;;;;55.58;31.67;;;;;;;3.23;71.28;100292.47;5053502;28;20382;-75
2022/04/20 00:14:46;;;;;;;54.10;32.97;;;;;;;3.25;71.53;100293.66;5035214;28;20466;-75
2022/04/20 00:17:11;;;;;;;57.70;33.70;;;;;;;3.19;70.99;100286.13;5051963;28;20029;-74
2022/04/20 00:19:38;;;;;;;54.90;31.40;;;;;;;3.27;71.10;100290.38;5035251;28;20032;-75
2022/04/20 00:22:05;;;;;;;58.67;31.67;;;;;;;3.22;71.74;100288.88;5053197;28;20064;-75
2022/04/20 00:24:31;;;;;;;58.53;32.60;;;;;;;3.20;71.71;100287.72;5035592;28;20049;-75
2022/04/20 00:26:57;;;;;;;66.28;34.22;;;;;;;3.23;71.36;100286.84;5034789;28;20072;-75
2022/04/20 00:29:22;;;;;;;56.08;31.27;;;;;;;3.27;71.41;100285.56;5053146;28;20065;-75
2022/04/20 00:31:47;;;;;;;54.60;31.58;;;;;;;3.25;71.94;100279.59;5035037;28;20029;-75
2022/04/20 00:34:14;;;;;;;55.50;29.77;;;;;;;3.20;71.77;100274.44;5034862;28;20053;-75
2022/04/20 00:36:41;;;;;;;59.33;32.20;;;;;;;3.24;71.74;100282.81;5035113;28;20052;-75
2022/04/20 00:39:07;;;;;;;56.15;31.40;;;;;;;3.23;72.23;100286.84;5051377;28;20037;-75
2022/04/20 00:41:33;;;;;;;55.03;31.20;;;;;;;3.26;71.32;100274.72;5030087;28;20040;-75
2022/04/20 00:44:01;;;;;;;52.95;29.90;;;;;;;3.32;71.76;100282.25;5051634;28;20033;-74
2022/04/20 00:46:28;;;;;;;51.03;29.33;;;;;;;3.38;71.25;100279.75;5018243;28;20138;-75
2022/04/20 00:48:55;;;;;;;48.42;29.67;;;;;;;3.43;70.98;100282.06;5053505;28;20118;-75
2022/04/20 00:51:21;;;;;;;52.60;29.95;;;;;;;3.44;71.16;100283.66;5055275;28;20115;-75
2022/04/20 00:53:47;;;;;;;54.63;29.20;;;;;;;3.55;70.46;100286.28;5038447;28;20033;-74
2022/04/20 00:56:12;;;;;;;51.25;29.17;;;;;;;3.59;70.13;100270.88;5038885;28;20025;-74
2022/04/20 00:58:40;;;;;;;54.83;29.92;;;;;;;3.66;69.97;100279.19;5056519;28;20359;-74
2022/04/20 01:01:15;;;;;;;47.53;28.75;;;;;;;3.73;69.88;100267.78;5038094;28;20092;-75
2022/04/20 01:03:40;;;;;;;51.38;28.92;;;;;;;3.67;70.07;100255.44;5038515;28;20032;-74
2022/04/20 01:06:07;;;;;;;51.75;27.80;;;;;;;3.77;69.79;100256.44;5054240;28;20041;-75
2022/04/20 01:08:35;;;;;;;53.40;28.67;;;;;;;3.78;70.38;100266.47;5039245;28;20500;-74
2022/04/20 01:11:15;;;;;;;55.67;30.90;;;;;;;3.84;69.86;100268.38;5055271;28;20145;-74
2022/04/20 01:13:41;;;;;;;50.45;28.05;;;;;;;3.86;69.61;100259.47;5021966;28;20116;-74
2022/04/20 01:16:06;;;;;;;51.72;28.65;;;;;;;3.92;69.29;100261.34;5038103;28;20037;-75
2022/04/20 01:18:42;;;;;;;51.78;28.92;;;;;;;3.98;69.00;100260.84;5054820;28;20535;-75
2022/04/20 01:21:10;;;;;;;55.50;28.83;;;;;;;3.96;69.34;100258.44;5020810;28;20037;-74
2022/04/20 01:23:37;;;;;;;55.50;29.27;;;;;;;4.02;69.34;100262.34;5055007;28;20029;-74
2022/04/20 01:26:09;;;;;;;51.70;28.52;;;;;;;4.06;69.15;100263.06;5036583;28;20024;-74
2022/04/20 01:28:37;;;;;;;50.03;28.95;;;;;;;4.08;69.24;100263.44;5036808;28;20027;-75
2022/04/20 01:31:04;;;;;;;49.78;27.70;;;;;;;4.03;69.54;100251.88;5020225;28;20120;-74
2022/04/20 01:33:30;;;;;;;45.00;26.80;;;;;;;4.13;68.89;100256.47;5054924;28;20028;-75
2022/04/20 01:35:58;;;;;;;50.13;27.75;;;;;;;4.17;68.26;100257.19;5033172;28;20050;-75
2022/04/20 01:38:23;;;;;;;49.03;28.48;;;;;;;4.02;68.73;100236.97;5035559;28;20474;-76
2022/04/20 01:40:48;;;;;;;48.30;27.70;;;;;;;4.18;68.66;100258.78;5033873;28;20140;-74
2022/04/20 01:43:15;;;;;;;43.47;26.05;;;;;;;4.16;68.54;100249.97;5034425;28;20083;-74
2022/04/20 01:45:40;;;;;;;52.35;27.23;;;;;;;4.19;68.18;100266.78;5035609;28;20478;-74
2022/04/20 01:48:07;;;;;;;48.40;27.35;;;;;;;4.15;68.84;100254.00;5051060;28;20021;-75
2022/04/20 01:51:46;;;;;;;52.20;28.83;;;;;;;4.06;69.91;100245.34;5050894;28;20021;-74
2022/04/20 01:53:21;;;;;;;52.38;26.98;;;;;;;4.04;69.38;100253.47;5034246;28;20116;-74
2022/04/20 01:55:49;;;;;;;45.58;28.25;;;;;;;3.99;69.91;100251.97;5050894;28;20061;-74
2022/04/20 01:58:16;;;;;;;51.28;27.67;;;;;;;3.87;70.72;100236.50;5050704;28;20034;-74
2022/04/20 02:00:42;;;;;;;46.30;28.27;;;;;;;3.89;70.45;100244.53;5050438;28;20021;-74
2022/04/20 02:03:09;;;;;;;46.35;27.13;;;;;;;3.90;70.54;100232.00;5050775;28;20049;-75
2022/04/20 02:05:34;;;;;;;48.00;28.20;;;;;;;3.94;70.61;100240.41;5035426;28;20048;-75
2022/04/20 02:08:00;;;;;;;46.92;27.08;;;;;;;4.05;70.16;100243.75;5034056;28;20025;-75
2022/04/20 02:10:27;;;;;;;47.00;27.50;;;;;;;4.13;69.94;100245.22;5033968;28;20553;-75
2022/04/20 02:12:52;;;;;;;44.35;26.67;;;;;;;4.18;68.99;100253.16;5033829;28;20025;-75
2022/04/20 02:15:18;;;;;;;47.10;27.00;;;;;;;4.27;69.59;100248.50;5050610;28;20090;-75
2022/04/20 02:17:45;;;;;;;46.15;27.27;;;;;;;4.33;68.79;100243.94;5051372;28;20498;-75
2022/04/20 02:20:11;;;;;;;46.63;28.15;;;;;;;4.44;68.52;100254.94;5050620;28;20021;-75
2022/04/20 02:22:36;;;;;;;46.83;27.25;;;;;;;4.45;68.58;100247.28;5033778;28;20033;-75
2022/04/20 02:25:03;;;;;;;52.03;28.33;;;;;;;4.49;68.64;100251.59;5033849;28;20025;-75
2022/04/20 02:27:30;;;;;;;49.22;27.38;;;;;;;4.55;69.37;100249.84;5035123;28;20033;-76
2022/04/20 02:29:55;;;;;;;46.90;28.17;;;;;;;4.50;69.44;100236.28;5033215;28;20073;-75
2022/04/20 02:32:22;;;;;;;48.90;29.40;;;;;;;4.62;68.87;100254.53;5033505;28;20056;-75
2022/04/20 02:34:49;;;;;;;44.40;27.48;;;;;;;4.63;68.53;100253.31;5034205;28;20512;-75
2022/04/20 02:37:16;;;;;;;51.25;28.15;;;;;;;4.69;69.08;100252.31;5033407;28;20036;-76
2022/04/20 02:39:42;;;;;;;44.85;26.70;;;;;;;4.64;68.56;100240.78;5033607;28;20497;-75
2022/04/20 02:42:17;;;;;;;43.83;27.42;;;;;;;4.71;68.51;100249.06;5049895;28;20112;-74
2022/04/20 02:44:56;;;;;;;47.15;27.55;;;;;;;4.76;68.22;100238.06;5033482;28;20032;-75
2022/04/20 02:47:22;;;;;;;51.03;27.13;;;;;;;4.77;68.61;100236.81;5034777;28;20026;-75
2022/04/20 02:49:48;;;;;;;49.10;27.40;;;;;;;4.79;68.01;100244.81;5049879;28;20030;-74
2022/04/20 02:52:16;;;;;;;45.53;27.25;;;;;;;4.77;68.27;100228.34;5034351;28;20076;-76
2022/04/20 02:54:41;;;;;;;44.03;27.10;;;;;;;4.77;68.23;100225.53;5032902;28;20025;-74
2022/04/20 02:57:07;;;;;;;45.28;27.10;;;;;;;4.79;68.47;100242.00;5033059;28;20427;-74
2022/04/20 02:59:32;;;;;;;47.05;27.15;;;;;;;4.84;68.25;100233.00;5049778;28;20017;-74
2022/04/20 03:01:58;;;;;;;42.92;25.67;;;;;;;4.91;68.04;100240.50;5032853;28;20083;-74
2022/04/20 03:04:24;;;;;;;49.72;27.50;;;;;;;4.90;67.75;100227.63;5032791;28;20126;-75
2022/04/20 03:06:50;;;;;;;44.33;27.30;;;;;;;4.94;67.81;100234.75;5034130;28;20049;-75
2022/04/20 03:09:16;;;;;;;44.38;25.50;;;;;;;4.96;67.99;100234.34;5032700;28;20029;-75
2022/04/20 03:11:43;;;;;;;41.45;26.10;;;;;;;4.97;67.37;100227.47;5033538;28;20022;-74
2022/04/20 03:14:09;;;;;;;39.90;24.70;;;;;;;4.97;67.40;100230.28;5034150;28;20029;-74
2022/04/20 03:16:34;;;;;;;44.88;26.10;;;;;;;4.98;67.61;100227.00;5032780;28;20037;-75
2022/04/20 03:19:00;;;;;;;39.05;24.73;;;;;;;5.01;67.98;100226.13;5033953;28;20095;-74
2022/04/20 03:21:25;;;;;;;42.10;24.83;;;;;;;5.04;67.94;100224.44;5032552;28;20033;-74
2022/04/20 03:23:51;;;;;;;42.58;24.75;;;;;;;5.05;68.08;100231.66;5032651;28;20545;-74
2022/04/20 03:26:17;;;;;;;39.83;23.65;;;;;;;5.04;67.05;100230.88;5033763;28;20429;-75
2022/04/20 03:28:44;;;;;;;38.60;24.23;;;;;;;5.03;66.78;100239.81;5032625;28;20028;-75
2022/04/20 03:31:10;;;;;;;42.72;23.70;;;;;;;5.06;67.57;100234.06;5049141;28;20112;-74
2022/04/20 03:33:37;;;;;;;35.63;23.35;;;;;;;5.10;67.01;100245.25;5033630;28;20040;-74
2022/04/20 03:36:06;;;;;;;41.50;22.77;;;;;;;5.05;66.61;100242.97;5018178;28;20059;-75
2022/04/20 03:38:33;;;;;;;36.63;23.30;;;;;;;5.04;66.93;100247.81;5032285;28;20091;-75
2022/04/20 03:40:58;;;;;;;39.42;24.17;;;;;;;5.06;67.24;100245.34;5049073;28;20082;-74
2022/04/20 03:43:24;;;;;;;36.63;23.08;;;;;;;5.05;67.46;100235.28;5032280;28;20026;-75
2022/04/20 03:45:50;;;;;;;36.58;22.35;;;;;;;5.11;67.49;100235.56;5033870;28;20028;-75
2022/04/20 03:48:17;;;;;;;37.60;22.13;;;;;;;5.09;67.79;100240.84;5048794;28;20030;-73
2022/04/20 03:50:44;;;;;;;39.17;24.27;;;;;;;5.11;67.13;100229.91;5031981;28;20033;-74
2022/04/20 03:53:10;;;;;;;38.50;22.75;;;;;;;5.11;66.89;100225.06;5033396;28;20166;-74
2022/04/20 03:55:37;;;;;;;34.58;21.60;;;;;;;5.08;67.74;100220.28;5032633;28;20111;-74
2022/04/20 03:58:03;;;;;;;35.38;22.55;;;;;;;5.17;66.92;100223.28;5048732;28;20025;-73
2022/04/20 04:00:29;;;;;;;32.10;20.70;;;;;;;5.22;67.19;100219.94;5033576;28;20071;-74
2022/04/20 04:02:55;;;;;;;32.85;21.95;;;;;;;5.25;66.83;100232.34;5032001;28;20036;-74
2022/04/20 04:05:21;;;;;;;35.22;21.95;;;;;;;5.29;67.21;100226.59;5031921;28;20026;-75
2022/04/20 04:07:47;;;;;;;38.45;22.13;;;;;;;5.26;66.90;100231.13;5033528;28;20075;-74
2022/04/20 04:10:13;;;;;;;35.53;22.67;;;;;;;5.25;66.87;100218.22;5033484;28;20037;-74
2022/04/20 04:12:39;;;;;;;32.67;21.80;;;;;;;5.34;66.68;100237.34;5048684;28;20037;-74
2022/04/20 04:15:06;;;;;;;30.08;19.90;;;;;;;5.31;67.70;100226.94;5032075;28;20045;-74
2022/04/20 04:17:34;;;;;;;33.72;20.60;;;;;;;5.36;66.50;100226.41;5033085;28;20021;-75
2022/04/20 04:20:01;;;;;;;33.08;21.88;;;;;;;5.42;66.40;100233.91;5048420;28;20052;-75
2022/04/20 04:22:27;;;;;;;36.92;21.40;;;;;;;5.44;66.47;100230.63;5050003;28;20069;-75
2022/04/20 04:24:53;;;;;;;32.13;20.05;;;;;;;5.43;66.65;100229.03;5037468;28;20025;-75
2022/04/20 04:27:21;;;;;;;30.10;20.40;;;;;;;5.43;65.99;100237.50;5055681;28;20511;-75
2022/04/20 04:29:49;;;;;;;37.70;21.52;;;;;;;5.41;66.71;100234.34;5055610;28;20036;-74
2022/04/20 04:32:16;;;;;;;34.50;22.23;;;;;;;5.43;67.13;100220.53;5073485;28;20039;-76
2022/04/20 04:34:41;;;;;;;39.58;21.35;;;;;;;5.45;66.94;100227.34;5092177;28;20512;-75
2022/04/20 04:37:09;;;;;;;34.60;21.98;;;;;;;5.54;66.82;100221.06;5058874;28;20028;-75
2022/04/20 04:39:34;;;;;;;33.83;21.40;;;;;;;5.57;67.33;100223.78;5058849;28;20043;-74
2022/04/20 04:42:00;;;;;;;35.42;22.08;;;;;;;5.62;66.44;100219.63;5075388;28;20036;-74
2022/04/20 04:44:26;;;;;;;36.63;21.58;;;;;;;5.68;66.17;100229.13;5075415;28;20028;-74
2022/04/20 04:49:36;;;;;;;33.58;21.05;;;;;;;5.73;66.68;100219.28;5061572;28;20087;-74
2022/04/20 04:52:02;;;;;;;33.88;21.27;;;;;;;5.78;65.97;100210.25;5075105;28;20048;-74
2022/04/20 04:54:30;;;;;;;37.25;21.90;;;;;;;5.82;65.69;100225.09;5075335;28;20030;-75
2022/04/20 04:56:56;;;;;;;29.65;20.75;;;;;;;5.82;65.94;100213.81;5075126;28;20045;-74
2022/04/20 04:59:22;;;;;;;36.28;21.88;;;;;;;5.80;66.61;100202.94;5059969;28;20124;-76
2022/04/20 05:01:48;;;;;;;35.20;21.83;;;;;;;5.66;66.14;100183.59;5038056;28;20119;-75
2022/04/20 05:04:14;;;;;;;33.83;21.77;;;;;;;5.84;66.16;100212.09;5038436;28;20119;-75
2022/04/20 05:06:40;;;;;;;35.92;22.17;;;;;;;5.94;65.80;100213.03;5055325;28;20032;-76
2022/04/20 05:09:07;;;;;;;34.67;22.48;;;;;;;6.05;65.40;100210.69;5055224;28;20087;-75
2022/04/20 05:11:33;;;;;;;34.60;22.27;;;;;;;6.13;65.58;100214.88;5038656;28;20079;-75
2022/04/20 05:14:04;;;;;;;38.53;22.85;;;;;;;6.21;65.04;100216.25;5071711;28;20025;-75
2022/04/20 05:16:31;;;;;;;41.50;22.90;;;;;;;6.21;65.71;100204.94;5038131;28;20032;-74
2022/04/20 05:18:59;;;;;;;39.33;23.23;;;;;;;6.27;65.19;100205.94;5055076;28;20033;-74
2022/04/20 05:21:24;;;;;;;41.67;22.42;;;;;;;6.37;64.70;100216.13;5056023;28;20055;-75
2022/04/20 05:23:49;;;;;;;36.90;21.45;;;;;;;6.44;65.02;100215.13;5057899;28;20029;-75
2022/04/20 05:26:15;;;;;;;36.58;21.35;;;;;;;6.49;64.56;100211.72;5055278;28;20032;-75
2022/04/20 05:28:41;;;;;;;38.35;21.05;;;;;;;6.53;64.20;100201.09;5054653;28;20493;-72
2022/04/20 05:31:06;;;;;;;31.60;20.95;;;;;;;6.67;63.87;100206.25;5054518;28;20070;-77
2022/04/20 05:33:34;;;;;;;32.38;20.02;;;;;;;6.79;63.68;100199.81;5053824;28;20116;-73
2022/04/20 05:36:01;;;;;;;30.00;20.27;;;;;;;6.92;63.60;100196.94;5072899;28;20606;-72
2022/04/20 05:43:55;;;;;;;30.35;18.88;;;;;;;7.22;62.58;100201.94;5046509;28;20035;-72
2022/04/20 05:46:21;;;;;;;31.88;18.75;;;;;;;7.29;61.62;100189.56;5057519;28;20032;-73
2022/04/20 05:48:47;;;;;;;33.10;19.00;;;;;;;7.36;61.34;100183.63;5075359;28;20039;-73
2022/04/20 05:51:13;;;;;;;30.75;17.75;;;;;;;7.47;61.56;100189.72;5075322;28;20028;-72
2022/04/20 05:53:40;;;;;;;33.05;18.35;;;;;;;7.60;60.91;100179.09;5057607;28;20026;-76
2022/04/20 05:56:06;;;;;;;28.90;19.42;;;;;;;7.67;60.51;100180.88;5057180;28;20028;-73
2022/04/20 05:58:32;;;;;;;26.40;17.55;;;;;;;7.70;60.42;100177.91;5040650;28;20039;-74
2022/04/20 06:00:58;;;;;;;26.67;18.05;;;;;;;7.75;60.23;100171.63;5073771;28;20029;-74
2022/04/20 06:03:24;;;;;;;25.73;18.45;;;;;;;7.74;60.16;100164.41;5039415;28;20036;-73
2022/04/20 06:05:49;;;;;;;33.03;19.00;;;;;;;7.75;59.50;100174.47;5074410;28;20043;-74
2022/04/20 06:08:14;;;;;;;30.42;18.35;;;;;;;7.82;60.27;100174.22;5054860;28;20059;-74
2022/04/20 06:10:41;;;;;;;31.60;17.75;;;;;;;7.90;59.66;100168.25;5056556;28;20457;-72
2022/04/20 06:13:09;;;;;;;24.08;17.45;;;;;;;8.00;59.67;100172.72;5040256;28;20370;-75
2022/04/20 06:15:36;;;;;;;27.10;17.88;;;;;;;8.06;59.13;100171.66;5065102;28;20028;-76
2022/04/20 06:18:02;;;;;;;26.10;17.20;;;;;;;8.06;59.19;100163.16;5054798;28;20032;-73
2022/04/20 06:20:30;;;;;;;30.35;18.35;;;;;;;8.17;59.00;100166.38;5032655;28;20093;-72
2022/04/20 06:22:58;;;;;;;32.70;17.83;;;;;;;8.22;58.96;100170.63;5056658;28;20063;-75
2022/04/20 06:25:23;;;;;;;28.33;17.27;;;;;;;8.07;58.68;100164.75;5056939;28;20024;-72
2022/04/20 06:28:04;;;;;;;29.40;17.40;;;;;;;8.08;58.63;100159.84;5053596;28;20474;-73
2022/04/20 06:30:30;;;;;;;22.58;16.83;;;;;;;8.06;58.75;100154.63;5035516;28;20136;-73
2022/04/20 06:32:56;;;;;;;33.88;17.23;;;;;;;8.20;58.11;100158.94;5019396;28;20025;-74
2022/04/20 06:35:21;;;;;;;29.40;16.40;;;;;;;8.36;57.54;100155.91;5035363;28;20056;-72
2022/04/20 06:37:48;;;;;;;32.83;17.85;;;;;;;8.43;57.52;100155.63;5019268;28;20028;-74
2022/04/20 06:40:14;;;;;;;26.77;16.67;;;;;;;8.58;58.04;100152.97;5053859;28;20025;-73
2022/04/20 06:42:44;;;;;;;45.00;17.02;;;;;;;8.68;57.11;100145.28;5035821;28;20040;-73
2022/04/20 06:45:10;;;;;;;36.45;18.15;;;;;;;8.72;56.63;100143.84;5035375;28;20467;-73
2022/04/20 06:47:36;;;;;;;29.40;17.40;;;;;;;8.64;57.12;100145.41;5036135;28;20036;-73
2022/04/20 06:50:03;;;;;;;35.80;17.17;;;;;;;8.70;56.96;100137.84;5019346;28;20025;-73
2022/04/20 07:00:44;;;;;;;21.60;15.70;;;;;;;8.79;56.12;100123.66;5074524;28;20106;-73
2022/04/20 07:03:09;;;;;;;24.80;16.67;;;;;;;8.85;56.04;100135.19;5056296;28;20028;-73
2022/04/20 07:05:35;;;;;;;27.77;16.23;;;;;;;8.81;56.15;100126.03;5056221;28;20074;-73
2022/04/20 07:08:01;;;;;;;31.13;17.27;;;;;;;8.98;56.09;100133.78;5039427;28;20028;-71
2022/04/20 07:10:27;;;;;;;41.03;18.50;;;;;;;8.94;55.45;100135.19;5055750;28;20515;-73
2022/04/20 07:12:52;;;;;;;42.30;17.88;;;;;;;9.00;55.85;100124.78;5039128;28;20036;-72
2022/04/20 07:15:19;;;;;;;24.80;15.88;;;;;;;9.12;55.32;100126.69;5055030;28;20032;-73
2022/04/20 07:17:45;;;;;;;27.38;16.40;;;;;;;9.18;55.78;100119.09;5041212;28;20040;-74
2022/04/20 07:20:17;;;;;;;33.72;17.23;;;;;;;9.32;54.43;100118.47;5065519;28;20025;-72
2022/04/20 07:22:47;;;;;;;27.40;16.70;;;;;;;9.38;54.46;100124.28;5053754;28;20061;-74
2022/04/20 07:25:16;;;;;;;26.65;16.83;;;;;;;9.42;54.18;100124.94;5019447;28;20122;-73
2022/04/20 07:27:41;;;;;;;25.98;16.05;;;;;;;9.34;53.46;100118.00;5036049;28;20123;-73
2022/04/20 07:30:08;;;;;;;28.80;16.85;;;;;;;9.35;54.02;100120.38;5058736;28;20135;-72
2022/04/20 07:32:34;;;;;;;25.70;16.30;;;;;;;9.42;53.85;100117.19;5067543;28;20035;-72
2022/04/20 07:34:59;;;;;;;27.65;17.63;;;;;;;9.54;53.85;100113.38;5060795;28;20501;-73
2022/04/20 07:37:25;;;;;;;29.02;16.23;;;;;;;9.70;54.01;100108.63;5042788;28;20181;-73
2022/04/20 07:39:50;;;;;;;28.25;18.08;;;;;;;9.84;54.20;100108.72;5060506;28;20446;-73
2022/04/20 07:42:17;;;;;;;30.67;17.17;;;;;;;9.95;52.21;100109.00;5060452;28;20041;-73
2022/04/20 07:44:43;;;;;;;36.90;16.73;;;;;;;10.02;51.74;100092.84;5059775;28;20036;-74
2022/04/20 07:47:09;;;;;;;28.92;16.15;;;;;;;10.10;51.76;100096.94;5051439;28;20032;-73
2022/04/20 07:52:19;;;;;;;28.92;16.23;;;;;;;10.23;51.24;100095.47;5052891;28;20043;-72
2022/04/20 07:54:46;;;;;;;27.35;16.85;;;;;;;10.20;51.42;100092.81;5051579;28;20375;-73
2022/04/20 07:57:14;;;;;;;31.10;16.42;;;;;;;10.11;52.05;100079.38;5052418;28;20456;-72
2022/04/20 07:59:44;;;;;;;22.00;16.55;;;;;;;10.26;51.54;100100.19;5051691;28;20029;-73
2022/04/20 08:02:09;;;;;;;27.23;16.67;;;;;;;10.24;51.41;100093.41;5051294;28;20059;-72
2022/04/20 08:04:35;;;;;;;37.42;16.90;;;;;;;10.28;51.45;100094.81;5052291;28;20458;-73
2022/04/20 08:07:02;;;;;;;35.78;17.17;;;;;;;10.31;50.25;100093.06;5051283;28;20551;-72
2022/04/20 08:09:29;;;;;;;27.23;16.95;;;;;;;10.36;51.07;100083.88;5052708;28;20036;-72
2022/04/20 08:11:54;;;;;;;25.02;14.70;;;;;;;10.49;51.25;100086.47;5034822;28;20040;-73
2022/04/20 08:14:20;;;;;;;22.05;16.15;;;;;;;10.58;50.91;100080.72;5052941;28;20033;-72
2022/04/20 08:16:48;;;;;;;27.33;15.50;;;;;;;10.69;50.83;100083.81;5028876;28;20037;-73
2022/04/20 08:19:14;;;;;;;24.13;16.23;;;;;;;10.69;49.33;100076.06;5042422;28;20074;-73
2022/04/20 08:21:39;;;;;;;32.67;18.17;;;;;;;10.88;49.33;100088.09;5067858;28;20041;-73
2022/04/20 08:24:06;;;;;;;27.15;15.27;;;;;;;10.96;49.43;100077.91;5051315;28;20432;-73
2022/04/20 08:26:33;;;;;;;24.50;15.13;;;;;;;11.17;48.47;100087.38;5043889;28;20045;-73
2022/04/20 08:28:58;;;;;;;26.27;14.55;;;;;;;11.28;47.76;100081.91;5033480;28;20482;-72
2022/04/20 08:31:24;;;;;;;28.95;15.30;;;;;;;11.60;47.89;100089.50;5051356;28;20040;-72
2022/04/20 08:33:50;;;;;;;22.27;14.25;;;;;;;11.75;47.19;100080.94;5050355;28;20075;-73
2022/04/20 08:36:18;;;;;;;24.23;14.75;;;;;;;11.89;46.44;100073.69;5017628;28;20081;-73
2022/04/20 08:38:44;;;;;;;22.60;14.40;;;;;;;12.11;46.55;100083.38;5031322;28;20104;-72
2022/04/20 08:41:12;;;;;;;24.98;15.85;;;;;;;12.32;46.41;100072.00;5037710;28;20033;-71
2022/04/20 08:43:41;;;;;;;19.08;14.57;;;;;;;12.47;45.47;100079.25;5034493;28;20032;-73
2022/04/20 08:46:16;;;;;;;28.95;15.73;;;;;;;12.61;46.23;100073.97;5051010;28;20021;-72
2022/04/20 08:48:42;;;;;;;22.60;13.60;;;;;;;12.87;45.81;100080.56;5034447;28;20029;-72
2022/04/20 08:51:09;;;;;;;26.17;14.05;;;;;;;13.04;44.86;100075.81;5051344;28;20028;-73
2022/04/20 08:53:36;;;;;;;20.08;15.00;;;;;;;13.08;46.02;100084.97;5051583;28;20040;-73
2022/04/20 08:58:56;;;;;;;24.90;14.52;;;;;;;13.30;46.97;100075.88;5051529;28;20121;-73
2022/04/20 09:01:21;;;;;;;20.85;13.77;;;;;;;13.35;46.68;100066.56;5051319;28;20470;-72
2022/04/20 09:03:47;;;;;;;20.52;13.98;;;;;;;13.24;47.37;100069.31;5051501;28;20021;-74
2022/04/20 09:06:14;;;;;;;17.73;13.43;;;;;;;13.45;47.55;100075.78;5034786;28;20393;-73
2022/04/20 09:08:41;;;;;;;21.10;14.65;;;;;;;13.65;47.55;100072.84;5034923;28;20057;-73
2022/04/20 09:11:07;;;;;;;22.30;14.00;;;;;;;13.77;47.63;100077.38;5054839;28;20025;-73
2022/04/20 09:13:41;;;;;;;25.48;15.50;;;;;;;13.82;48.39;100070.91;5056297;28;20381;-72
2022/04/20 09:16:11;;;;;;;15.63;13.40;;;;;;;13.86;47.88;100071.50;5038639;28;20111;-73
2022/04/20 09:18:40;;;;;;;18.85;13.20;;;;;;;13.72;48.56;100047.41;5055194;28;20099;-72
2022/04/20 09:21:20;;;;;;;17.67;12.70;;;;;;;13.86;47.67;100070.72;5038186;28;20025;-73
2022/04/20 09:23:45;;;;;;;20.55;12.52;;;;;;;13.70;48.64;100058.59;5039608;28;20029;-75
2022/04/20 09:26:15;;;;;;;18.65;12.02;;;;;;;13.60;49.44;100060.06;5057753;28;20024;-74
2022/04/20 09:29:08;;;;;;;23.10;12.73;;;;;;;13.54;51.55;100044.91;5074745;28;20033;-73
2022/04/20 09:31:41;;;;;;;24.98;13.90;;;;;;;13.45;50.02;100059.41;5074464;28;20032;-72
2022/04/20 09:34:08;;;;;;;19.20;12.65;;;;;;;13.35;50.08;100043.69;5075882;28;20066;-73
2022/04/20 09:36:48;;;;;;;15.98;12.18;;;;;;;13.29;49.66;100045.72;5095569;28;20098;-73
2022/04/20 09:39:15;;;;;;;19.77;13.32;;;;;;;13.25;49.73;100040.22;5078081;28;20166;-73
2022/04/20 09:42:02;;;;;;;17.05;12.73;;;;;;;13.29;51.49;100042.84;5044432;28;20062;-73
2022/04/20 09:44:29;;;;;;;18.83;12.73;;;;;;;13.30;50.36;100030.91;5077697;28;20028;-73
2022/04/20 09:50:11;;;;;;;22.90;13.82;;;;;;;13.50;50.97;100035.00;5066817;28;20101;-72
2022/04/20 09:52:42;;;;;;;19.50;14.27;;;;;;;13.60;50.77;100028.59;5073883;28;20044;-74
2022/04/20 09:55:11;;;;;;;21.42;14.02;;;;;;;13.56;51.57;100030.91;5077242;28;20059;-74
2022/04/20 09:57:38;;;;;;;19.65;13.50;;;;;;;13.45;50.64;100030.00;5044006;28;20112;-72
2022/04/20 10:00:10;;;;;;;19.95;13.25;;;;;;;13.38;50.61;100031.22;5077381;28;20436;-71
2022/04/20 10:02:54;;;;;;;26.90;15.00;;;;;;;13.13;51.51;100020.56;5095564;28;20028;-73
2022/04/20 10:05:23;;;;;;;21.25;13.65;;;;;;;13.19;52.01;100022.22;5077153;28;20024;-72
2022/04/20 10:07:49;;;;;;;19.80;13.75;;;;;;;13.14;51.95;100019.28;5095219;28;20035;-72
2022/04/20 10:10:15;;;;;;;22.58;14.50;;;;;;;13.08;52.42;100013.47;5077324;28;20028;-74
2022/04/20 10:12:51;;;;;;;19.17;13.23;;;;;;;12.92;52.74;100019.81;5095316;28;20024;-72
2022/04/20 10:18:33;;;;;;;17.15;12.68;;;;;;;12.58;54.29;100020.69;5079929;28;20479;-73
2022/04/20 10:21:11;;;;;;;21.83;13.95;;;;;;;12.45;55.32;100021.81;5059961;28;20049;-72
2022/04/20 10:23:47;;;;;;;18.25;14.13;;;;;;;12.31;55.96;100019.81;5095080;28;20461;-73
2022/04/20 10:26:16;;;;;;;19.88;14.23;;;;;;;12.09;55.45;100014.56;5076698;28;20042;-73
2022/04/20 10:29:16;;;;;;;20.48;13.63;;;;;;;11.95;57.42;100020.31;5060381;28;20170;-73
2022/04/20 10:31:59;;;;;;;22.33;15.00;;;;;;;11.87;57.92;100014.22;5077795;28;20020;-72
2022/04/20 10:34:26;;;;;;;24.10;14.77;;;;;;;11.79;58.04;100010.19;5052650;28;20127;-74
2022/04/20 10:37:01;;;;;;;18.52;14.02;;;;;;;11.72;58.82;100009.81;5053463;28;20021;-74
2022/04/20 10:39:33;;;;;;;19.80;14.88;;;;;;;11.62;59.20;100006.28;5036535;28;20056;-74
2022/04/20 10:42:11;;;;;;;17.92;13.52;;;;;;;11.57;60.36;100007.75;5020684;28;20028;-74
2022/04/20 10:44:51;;;;;;;19.13;13.90;;;;;;;11.39;60.17;100007.97;5050180;28;20029;-73
2022/04/20 10:47:24;;;;;;;20.92;13.25;;;;;;;11.22;60.32;100010.53;5044516;28;20024;-75
2022/04/20 10:49:52;;;;;;;20.42;13.10;;;;;;;11.07;61.41;100000.38;5043413;28;20021;-72
2022/04/20 10:52:30;;;;;;;22.88;13.95;;;;;;;11.07;62.46;100003.22;5033523;28;20486;-75
2022/04/20 10:54:56;;;;;;;16.65;14.07;;;;;;;11.19;62.72;100005.03;5052621;28;20112;-76
2022/04/20 10:57:40;;;;;;;19.80;12.73;;;;;;;11.26;62.30;99996.06;5054235;28;20440;-75
2022/04/20 11:00:26;;;;;;;19.05;12.63;;;;;;;11.14;62.55;100002.84;5054391;28;20025;-75
2022/04/20 11:03:03;;;;;;;17.30;13.00;;;;;;;10.82;63.72;99990.31;5052925;28;20052;-76
2022/04/20 11:05:30;;;;;;;22.00;12.30;;;;;;;10.81;63.74;99991.59;5052808;28;20028;-73
2022/04/20 11:08:25;;;;;;;15.68;12.32;;;;;;;10.63;66.52;99984.00;5034036;28;20394;-73
2022/04/20 11:20:00;;;;;;;16.50;8.75;;;;;;;10.63;65.59;99994.59;5054015;28;20090;-77
2022/04/20 11:22:28;;;;;;;13.55;8.10;;;;;;;10.64;65.85;99979.88;5052615;28;20032;-77
2022/04/20 11:25:06;;;;;;;13.15;6.78;;;;;;;10.81;65.22;100003.78;5052432;28;20438;-75
2022/04/20 11:27:35;;;;;;;10.45;6.78;;;;;;;10.85;65.30;99994.28;5068747;28;20482;-76
2022/04/20 11:30:04;;;;;;;11.95;7.45;;;;;;;10.78;66.83;99990.53;5035317;28;20036;-76
2022/04/20 11:32:38;;;;;;;7.72;6.70;;;;;;;10.81;66.08;99998.09;5035275;28;20474;-76
2022/04/20 11:35:06;;;;;;;12.48;7.40;;;;;;;10.69;66.59;99990.59;5061201;28;20498;-77
2022/04/20 11:37:33;;;;;;;7.85;6.55;;;;;;;10.33;70.90;99988.81;5073264;28;20438;-76
2022/04/20 11:40:07;;;;;;;8.27;6.78;;;;;;;10.06;73.95;99991.03;5072165;28;20019;-76
2022/04/20 11:42:32;;;;;;;16.13;5.85;;;;;;;9.88;75.24;99987.03;5072449;28;20029;-75
2022/04/20 11:45:00;;;;;;;11.48;7.18;;;;;;;10.00;72.70;99990.91;5073321;28;20024;-76
2022/04/20 11:47:27;;;;;;;9.30;7.05;;;;;;;10.04;70.54;99985.03;5072844;28;20028;-77
2022/04/20 11:49:55;;;;;;;19.98;8.07;;;;;;;10.04;70.06;99994.38;5073205;28;20103;-75
2022/04/20 11:52:22;;;;;;;13.68;8.65;;;;;;;10.02;69.67;99984.72;5072392;28;20032;-74
2022/04/20 11:54:50;;;;;;;22.05;11.23;;;;;;;10.16;70.24;99990.50;5072066;28;20036;-73
2022/04/20 11:57:16;;;;;;;9.40;6.38;;;;;;;10.14;69.67;99980.88;5071952;28;20046;-73